sensor_id;sensor_type;location;lat;lon;timestamp;temperature;humidity
7077;DHT22;3579;48.956;9.154;2024-03-07T00:02:20;16.90;60.50
7077;DHT22;3579;48.956;9.154;2024-03-07T00:04:46;16.90;60.40
7077;DHT22;3579;48.956;9.154;2024-03-07T00:07:12;16.90;60.50
7077;DHT22;3579;48.956;9.154;2024-03-07T00:09:38;16.90;60.60
7077;DHT22;3579;48.956;9.154;2024-03-07T00:12:05;16.90;60.50
7077;DHT22;3579;48.956;9.154;2024-03-07T00:14:33;16.90;60.60
7077;DHT22;3579;48.956;9.154;2024-03-07T00:17:01;16.90;60.60
7077;DHT22;3579;48.956;9.154;2024-03-07T00:19:28;16.90;60.60
7077;DHT22;3579;48.956;9.154;2024-03-07T00:21:59;16.80;60.50
7077;DHT22;3579;48.956;9.154;2024-03-07T00:24:25;16.80;60.50
7077;DHT22;3579;48.956;9.154;2024-03-07T00:26:53;16.80;60.60
7077;DHT22;3579;48.956;9.154;2024-03-07T00:29:19;16.80;60.70
7077;DHT22;3579;48.956;9.154;2024-03-07T00:31:46;16.80;60.70
7077;DHT22;3579;48.956;9.154;2024-03-07T00:34:13;16.90;62.90
7077;DHT22;3579;48.956;9.154;2024-03-07T00:36:44;16.80;60.80
7077;DHT22;3579;48.956;9.154;2024-03-07T00:39:10;16.70;61.30
7077;DHT22;3579;48.956;9.154;2024-03-07T00:41:40;16.70;60.70
7077;DHT22;3579;48.956;9.154;2024-03-07T00:44:07;16.70;60.70
7077;DHT22;3579;48.956;9.154;2024-03-07T00:46:36;16.70;60.70
7077;DHT22;3579;48.956;9.154;2024-03-07T00:49:02;16.70;60.80
7077;DHT22;3579;48.956;9.154;2024-03-07T00:51:29;16.70;60.80
7077;DHT22;3579;48.956;9.154;2024-03-07T00:53:55;16.60;60.70
7077;DHT22;3579;48.956;9.154;2024-03-07T00:56:22;16.60;60.80
7077;DHT22;3579;48.956;9.154;2024-03-07T00:58:48;19.80;64.10
7077;DHT22;3579;48.956;9.154;2024-03-07T01:01:15;16.60;60.80
7077;DHT22;3579;48.956;9.154;2024-03-07T01:03:44;16.60;60.80
7077;DHT22;3579;48.956;9.154;2024-03-07T01:06:11;16.60;60.90
7077;DHT22;3579;48.956;9.154;2024-03-07T01:08:38;16.60;60.80
7077;DHT22;3579;48.956;9.154;2024-03-07T01:11:05;16.60;60.90
7077;DHT22;3579;48.956;9.154;2024-03-07T01:13:41;16.60;60.90
7077;DHT22;3579;48.956;9.154;2024-03-07T01:16:08;16.50;60.90
7077;DHT22;3579;48.956;9.154;2024-03-07T01:18:34;16.50;63.30
7077;DHT22;3579;48.956;9.154;2024-03-07T01:21:04;16.60;61.00
7077;DHT22;3579;48.956;9.154;2024-03-07T01:23:31;16.50;61.00
7077;DHT22;3579;48.956;9.154;2024-03-07T01:25:58;16.50;61.00
7077;DHT22;3579;48.956;9.154;2024-03-07T01:28:25;16.30;63.00
7077;DHT22;3579;48.956;9.154;2024-03-07T01:30:52;16.50;61.00
7077;DHT22;3579;48.956;9.154;2024-03-07T01:33:21;16.50;61.00
7077;DHT22;3579;48.956;9.154;2024-03-07T01:35:47;16.50;61.10
7077;DHT22;3579;48.956;9.154;2024-03-07T01:38:14;16.50;61.10
7077;DHT22;3579;48.956;9.154;2024-03-07T01:40:41;16.40;61.00
7077;DHT22;3579;48.956;9.154;2024-03-07T01:43:10;16.40;61.10
7077;DHT22;3579;48.956;9.154;2024-03-07T01:45:37;16.40;61.20
7077;DHT22;3579;48.956;9.154;2024-03-07T01:48:05;16.40;61.10
7077;DHT22;3579;48.956;9.154;2024-03-07T01:50:32;16.40;61.20
7077;DHT22;3579;48.956;9.154;2024-03-07T01:52:59;16.40;61.20
7077;DHT22;3579;48.956;9.154;2024-03-07T01:55:27;16.40;61.20
7077;DHT22;3579;48.956;9.154;2024-03-07T01:57:57;16.30;61.10
7077;DHT22;3579;48.956;9.154;2024-03-07T02:02:52;16.30;60.70
7077;DHT22;3579;48.956;9.154;2024-03-07T02:05:22;16.30;61.30
7077;DHT22;3579;48.956;9.154;2024-03-07T02:07:48;16.30;61.30
7077;DHT22;3579;48.956;9.154;2024-03-07T02:10:15;16.30;61.30
7077;DHT22;3579;48.956;9.154;2024-03-07T02:12:42;16.20;61.20
7077;DHT22;3579;48.956;9.154;2024-03-07T02:15:08;16.20;61.20
7077;DHT22;3579;48.956;9.154;2024-03-07T02:17:36;16.20;61.30
7077;DHT22;3579;48.956;9.154;2024-03-07T02:20:03;16.20;61.30
7077;DHT22;3579;48.956;9.154;2024-03-07T02:22:30;16.20;61.30
7077;DHT22;3579;48.956;9.154;2024-03-07T02:24:56;16.20;61.40
7077;DHT22;3579;48.956;9.154;2024-03-07T02:27:22;16.20;61.40
7077;DHT22;3579;48.956;9.154;2024-03-07T02:29:48;16.10;61.30
7077;DHT22;3579;48.956;9.154;2024-03-07T02:32:16;16.10;61.40
7077;DHT22;3579;48.956;9.154;2024-03-07T02:34:42;16.20;61.50
7077;DHT22;3579;48.956;9.154;2024-03-07T02:37:09;16.10;61.40
7077;DHT22;3579;48.956;9.154;2024-03-07T02:39:38;16.10;62.10
7077;DHT22;3579;48.956;9.154;2024-03-07T02:42:05;16.10;61.40
7077;DHT22;3579;48.956;9.154;2024-03-07T02:44:31;16.10;61.40
7077;DHT22;3579;48.956;9.154;2024-03-07T02:46:58;16.10;61.40
7077;DHT22;3579;48.956;9.154;2024-03-07T02:49:24;16.10;61.40
7077;DHT22;3579;48.956;9.154;2024-03-07T02:51:50;16.00;61.40
7077;DHT22;3579;48.956;9.154;2024-03-07T02:54:16;16.00;61.40
7077;DHT22;3579;48.956;9.154;2024-03-07T02:56:42;15.90;63.30
7077;DHT22;3579;48.956;9.154;2024-03-07T02:59:08;16.00;61.50
7077;DHT22;3579;48.956;9.154;2024-03-07T03:01:34;16.00;61.50
7077;DHT22;3579;48.956;9.154;2024-03-07T03:04:01;16.00;61.60
7077;DHT22;3579;48.956;9.154;2024-03-07T03:06:27;16.00;61.60
7077;DHT22;3579;48.956;9.154;2024-03-07T03:08:53;15.90;61.50
7077;DHT22;3579;48.956;9.154;2024-03-07T03:11:20;15.90;61.50
7077;DHT22;3579;48.956;9.154;2024-03-07T03:13:46;16.00;61.70
7077;DHT22;3579;48.956;9.154;2024-03-07T03:16:14;15.90;61.50
7077;DHT22;3579;48.956;9.154;2024-03-07T03:18:40;15.90;61.60
7077;DHT22;3579;48.956;9.154;2024-03-07T03:21:06;15.90;61.70
7077;DHT22;3579;48.956;9.154;2024-03-07T03:23:33;15.90;61.70
7077;DHT22;3579;48.956;9.154;2024-03-07T03:26:00;15.90;61.70
7077;DHT22;3579;48.956;9.154;2024-03-07T03:28:26;15.80;63.10
7077;DHT22;3579;48.956;9.154;2024-03-07T03:30:53;15.80;61.60
7077;DHT22;3579;48.956;9.154;2024-03-07T03:33:19;15.80;61.60
7077;DHT22;3579;48.956;9.154;2024-03-07T03:35:47;15.80;61.60
7077;DHT22;3579;48.956;9.154;2024-03-07T03:38:13;15.80;61.70
7077;DHT22;3579;48.956;9.154;2024-03-07T03:40:39;15.80;61.70
7077;DHT22;3579;48.956;9.154;2024-03-07T03:43:05;15.80;61.70
7077;DHT22;3579;48.956;9.154;2024-03-07T03:45:31;15.80;63.30
7077;DHT22;3579;48.956;9.154;2024-03-07T03:47:59;15.70;61.80
7077;DHT22;3579;48.956;9.154;2024-03-07T03:50:26;15.70;62.40
7077;DHT22;3579;48.956;9.154;2024-03-07T03:52:53;15.70;61.80
7077;DHT22;3579;48.956;9.154;2024-03-07T03:55:19;15.70;61.80
7077;DHT22;3579;48.956;9.154;2024-03-07T03:57:46;15.70;61.70
7077;DHT22;3579;48.956;9.154;2024-03-07T04:00:15;15.70;61.80
7077;DHT22;3579;48.956;9.154;2024-03-07T04:02:44;15.70;61.80
7077;DHT22;3579;48.956;9.154;2024-03-07T04:05:14;15.70;61.80
7077;DHT22;3579;48.956;9.154;2024-03-07T04:07:41;15.70;61.80
7077;DHT22;3579;48.956;9.154;2024-03-07T04:10:10;15.60;61.70
7077;DHT22;3579;48.956;9.154;2024-03-07T04:12:38;15.60;61.70
7077;DHT22;3579;48.956;9.154;2024-03-07T04:15:10;15.80;63.30
7077;DHT22;3579;48.956;9.154;2024-03-07T04:17:37;15.60;61.80
7077;DHT22;3579;48.956;9.154;2024-03-07T04:20:04;15.60;61.80
7077;DHT22;3579;48.956;9.154;2024-03-07T04:22:37;14.50;60.70
7077;DHT22;3579;48.956;9.154;2024-03-07T04:25:07;15.60;61.90
7077;DHT22;3579;48.956;9.154;2024-03-07T04:27:36;15.60;61.90
7077;DHT22;3579;48.956;9.154;2024-03-07T04:30:04;15.60;62.00
7077;DHT22;3579;48.956;9.154;2024-03-07T04:32:31;15.60;61.90
7077;DHT22;3579;48.956;9.154;2024-03-07T04:34:57;15.60;61.80
7077;DHT22;3579;48.956;9.154;2024-03-07T04:37:23;15.60;61.80
7077;DHT22;3579;48.956;9.154;2024-03-07T04:39:49;15.50;61.80
7077;DHT22;3579;48.956;9.154;2024-03-07T04:42:15;15.60;61.70
7077;DHT22;3579;48.956;9.154;2024-03-07T04:44:41;15.50;61.70
7077;DHT22;3579;48.956;9.154;2024-03-07T04:47:07;15.50;61.70
7077;DHT22;3579;48.956;9.154;2024-03-07T04:49:34;15.50;61.60
7077;DHT22;3579;48.956;9.154;2024-03-07T04:52:02;15.50;61.60
7077;DHT22;3579;48.956;9.154;2024-03-07T04:54:29;15.50;61.70
7077;DHT22;3579;48.956;9.154;2024-03-07T04:57:00;15.50;61.00
7077;DHT22;3579;48.956;9.154;2024-03-07T04:59:26;15.50;61.60
7077;DHT22;3579;48.956;9.154;2024-03-07T05:01:52;15.50;61.60
7077;DHT22;3579;48.956;9.154;2024-03-07T05:04:18;15.40;61.60
7077;DHT22;3579;48.956;9.154;2024-03-07T05:06:45;15.40;61.60
7077;DHT22;3579;48.956;9.154;2024-03-07T05:09:14;15.40;62.20
7077;DHT22;3579;48.956;9.154;2024-03-07T05:11:49;15.40;61.60
7077;DHT22;3579;48.956;9.154;2024-03-07T05:14:17;15.40;61.70
7077;DHT22;3579;48.956;9.154;2024-03-07T05:16:44;15.30;61.60
7077;DHT22;3579;48.956;9.154;2024-03-07T05:19:10;15.30;61.70
7077;DHT22;3579;48.956;9.154;2024-03-07T05:21:36;15.30;61.70
7077;DHT22;3579;48.956;9.154;2024-03-07T05:24:07;15.30;61.70
7077;DHT22;3579;48.956;9.154;2024-03-07T05:26:35;15.30;61.70
7077;DHT22;3579;48.956;9.154;2024-03-07T05:29:07;15.30;61.80
7077;DHT22;3579;48.956;9.154;2024-03-07T05:31:37;15.30;61.70
7077;DHT22;3579;48.956;9.154;2024-03-07T05:34:06;15.20;61.60
7077;DHT22;3579;48.956;9.154;2024-03-07T05:36:36;15.20;61.70
7077;DHT22;3579;48.956;9.154;2024-03-07T05:39:02;15.20;61.60
7077;DHT22;3579;48.956;9.154;2024-03-07T05:41:41;15.20;61.70
7077;DHT22;3579;48.956;9.154;2024-03-07T05:44:08;15.20;61.70
7077;DHT22;3579;48.956;9.154;2024-03-07T05:46:37;15.20;61.70
7077;DHT22;3579;48.956;9.154;2024-03-07T05:49:09;15.20;61.60
7077;DHT22;3579;48.956;9.154;2024-03-07T05:51:35;15.30;61.70
7077;DHT22;3579;48.956;9.154;2024-03-07T05:54:02;15.20;61.60
7077;DHT22;3579;48.956;9.154;2024-03-07T05:56:35;15.20;61.60
7077;DHT22;3579;48.956;9.154;2024-03-07T05:59:05;15.30;61.70
7077;DHT22;3579;48.956;9.154;2024-03-07T06:01:36;15.30;61.70
7077;DHT22;3579;48.956;9.154;2024-03-07T06:04:03;15.30;61.70
7077;DHT22;3579;48.956;9.154;2024-03-07T06:06:33;15.30;61.60
7077;DHT22;3579;48.956;9.154;2024-03-07T06:09:01;15.10;63.10
7077;DHT22;3579;48.956;9.154;2024-03-07T06:11:38;15.30;61.50
7077;DHT22;3579;48.956;9.154;2024-03-07T06:14:05;15.30;61.50
7077;DHT22;3579;48.956;9.154;2024-03-07T06:16:36;15.30;61.50
7077;DHT22;3579;48.956;9.154;2024-03-07T06:19:04;15.30;61.50
7077;DHT22;3579;48.956;9.154;2024-03-07T06:21:33;15.30;61.50
7077;DHT22;3579;48.956;9.154;2024-03-07T06:24:01;15.30;61.40
7077;DHT22;3579;48.956;9.154;2024-03-07T06:26:30;15.30;61.40
7077;DHT22;3579;48.956;9.154;2024-03-07T06:29:12;15.30;61.40
7077;DHT22;3579;48.956;9.154;2024-03-07T06:31:38;15.40;61.40
7077;DHT22;3579;48.956;9.154;2024-03-07T06:34:05;15.40;61.50
7077;DHT22;3579;48.956;9.154;2024-03-07T06:36:31;15.30;61.30
7077;DHT22;3579;48.956;9.154;2024-03-07T06:38:57;15.40;61.40
7077;DHT22;3579;48.956;9.154;2024-03-07T06:41:23;15.40;61.40
7077;DHT22;3579;48.956;9.154;2024-03-07T06:43:51;15.40;61.40
7077;DHT22;3579;48.956;9.154;2024-03-07T06:46:19;15.40;61.30
7077;DHT22;3579;48.956;9.154;2024-03-07T06:48:46;15.40;61.40
7077;DHT22;3579;48.956;9.154;2024-03-07T06:51:12;15.40;61.30
7077;DHT22;3579;48.956;9.154;2024-03-07T06:53:39;15.50;61.40
7077;DHT22;3579;48.956;9.154;2024-03-07T06:56:05;15.50;61.30
7077;DHT22;3579;48.956;9.154;2024-03-07T06:58:32;15.50;61.20
7077;DHT22;3579;48.956;9.154;2024-03-07T07:00:58;15.50;61.20
7077;DHT22;3579;48.956;9.154;2024-03-07T07:03:26;15.60;61.30
7077;DHT22;3579;48.956;9.154;2024-03-07T07:05:56;15.60;61.30
7077;DHT22;3579;48.956;9.154;2024-03-07T07:08:22;15.60;62.70
7077;DHT22;3579;48.956;9.154;2024-03-07T07:10:48;15.60;61.80
7077;DHT22;3579;48.956;9.154;2024-03-07T07:13:14;15.70;61.30
7077;DHT22;3579;48.956;9.154;2024-03-07T07:15:40;15.70;61.20
7077;DHT22;3579;48.956;9.154;2024-03-07T07:18:06;15.70;61.10
7077;DHT22;3579;48.956;9.154;2024-03-07T07:20:33;15.80;61.20
7077;DHT22;3579;48.956;9.154;2024-03-07T07:23:02;15.80;61.10
7077;DHT22;3579;48.956;9.154;2024-03-07T07:25:30;15.90;61.30
7077;DHT22;3579;48.956;9.154;2024-03-07T07:27:56;15.90;61.10
7077;DHT22;3579;48.956;9.154;2024-03-07T07:30:24;16.00;62.40
7077;DHT22;3579;48.956;9.154;2024-03-07T07:32:52;16.20;62.90
7077;DHT22;3579;48.956;9.154;2024-03-07T07:35:19;16.20;58.30
7077;DHT22;3579;48.956;9.154;2024-03-07T07:37:50;16.00;56.30
7077;DHT22;3579;48.956;9.154;2024-03-07T07:40:23;16.20;59.70
7077;DHT22;3579;48.956;9.154;2024-03-07T07:42:54;16.40;59.80
7077;DHT22;3579;48.956;9.154;2024-03-07T07:45:22;16.60;60.00
7077;DHT22;3579;48.956;9.154;2024-03-07T07:47:52;16.70;60.00
7077;DHT22;3579;48.956;9.154;2024-03-07T07:50:21;16.80;60.10
7077;DHT22;3579;48.956;9.154;2024-03-07T07:52:55;16.90;60.10
7077;DHT22;3579;48.956;9.154;2024-03-07T07:55:24;15.30;58.70
7077;DHT22;3579;48.956;9.154;2024-03-07T07:57:53;17.10;60.50
7077;DHT22;3579;48.956;9.154;2024-03-07T08:00:20;17.20;60.70
7077;DHT22;3579;48.956;9.154;2024-03-07T08:03:04;17.30;60.50
7077;DHT22;3579;48.956;9.154;2024-03-07T08:05:33;17.30;60.50
7077;DHT22;3579;48.956;9.154;2024-03-07T08:08:03;17.40;60.40
7077;DHT22;3579;48.956;9.154;2024-03-07T08:10:30;17.50;60.60
7077;DHT22;3579;48.956;9.154;2024-03-07T08:12:58;17.60;60.90
7077;DHT22;3579;48.956;9.154;2024-03-07T08:15:25;17.70;61.00
7077;DHT22;3579;48.956;9.154;2024-03-07T08:17:52;17.70;61.00
7077;DHT22;3579;48.956;9.154;2024-03-07T08:20:20;17.80;61.30
7077;DHT22;3579;48.956;9.154;2024-03-07T08:22:50;17.90;61.20
7077;DHT22;3579;48.956;9.154;2024-03-07T08:25:21;17.90;61.20
7077;DHT22;3579;48.956;9.154;2024-03-07T08:27:50;18.00;61.20
7077;DHT22;3579;48.956;9.154;2024-03-07T08:30:17;18.10;60.90
7077;DHT22;3579;48.956;9.154;2024-03-07T08:32:54;18.20;61.20
7077;DHT22;3579;48.956;9.154;2024-03-07T08:35:22;18.30;61.40
7077;DHT22;3579;48.956;9.154;2024-03-07T08:37:49;18.40;61.30
7077;DHT22;3579;48.956;9.154;2024-03-07T08:40:20;18.40;61.30
7077;DHT22;3579;48.956;9.154;2024-03-07T08:42:53;18.50;61.30
7077;DHT22;3579;48.956;9.154;2024-03-07T08:45:24;18.60;61.30
7077;DHT22;3579;48.956;9.154;2024-03-07T08:47:52;18.70;61.00
7077;DHT22;3579;48.956;9.154;2024-03-07T08:50:21;18.80;61.00
7077;DHT22;3579;48.956;9.154;2024-03-07T08:52:48;18.80;61.00
7077;DHT22;3579;48.956;9.154;2024-03-07T08:55:16;18.90;61.00
7077;DHT22;3579;48.956;9.154;2024-03-07T08:57:43;19.00;61.70
7077;DHT22;3579;48.956;9.154;2024-03-07T09:00:15;19.00;60.60
7077;DHT22;3579;48.956;9.154;2024-03-07T09:02:52;19.00;60.20
7077;DHT22;3579;48.956;9.154;2024-03-07T09:05:20;19.10;60.50
7077;DHT22;3579;48.956;9.154;2024-03-07T09:07:48;19.10;60.40
7077;DHT22;3579;48.956;9.154;2024-03-07T09:10:15;19.20;60.60
7077;DHT22;3579;48.956;9.154;2024-03-07T09:12:41;19.20;60.50
7077;DHT22;3579;48.956;9.154;2024-03-07T09:15:08;19.40;60.60
7077;DHT22;3579;48.956;9.154;2024-03-07T09:17:38;19.40;60.60
7077;DHT22;3579;48.956;9.154;2024-03-07T09:20:06;19.50;60.60
7077;DHT22;3579;48.956;9.154;2024-03-07T09:22:32;19.50;60.50
7077;DHT22;3579;48.956;9.154;2024-03-07T09:24:59;19.60;60.50
7077;DHT22;3579;48.956;9.154;2024-03-07T09:27:25;19.60;60.40
7077;DHT22;3579;48.956;9.154;2024-03-07T09:29:51;19.80;60.60
7077;DHT22;3579;48.956;9.154;2024-03-07T09:32:18;19.80;60.50
7077;DHT22;3579;48.956;9.154;2024-03-07T09:34:44;19.90;60.30
7077;DHT22;3579;48.956;9.154;2024-03-07T09:37:10;20.00;60.40
7077;DHT22;3579;48.956;9.154;2024-03-07T09:39:37;20.00;60.30
7077;DHT22;3579;48.956;9.154;2024-03-07T09:42:08;20.10;60.30
7077;DHT22;3579;48.956;9.154;2024-03-07T09:44:38;20.20;60.40
7077;DHT22;3579;48.956;9.154;2024-03-07T09:47:07;20.20;60.20
7077;DHT22;3579;48.956;9.154;2024-03-07T09:49:34;20.20;60.20
7077;DHT22;3579;48.956;9.154;2024-03-07T09:52:08;20.30;60.30
7077;DHT22;3579;48.956;9.154;2024-03-07T09:54:38;20.40;60.30
7077;DHT22;3579;48.956;9.154;2024-03-07T09:57:06;20.40;60.10
7077;DHT22;3579;48.956;9.154;2024-03-07T09:59:35;20.50;60.40
7077;DHT22;3579;48.956;9.154;2024-03-07T10:02:08;20.60;60.00
7077;DHT22;3579;48.956;9.154;2024-03-07T10:04:48;20.60;59.80
7077;DHT22;3579;48.956;9.154;2024-03-07T10:07:15;20.70;59.70
7077;DHT22;3579;48.956;9.154;2024-03-07T10:09:42;20.80;59.70
7077;DHT22;3579;48.956;9.154;2024-03-07T10:12:09;20.90;60.00
7077;DHT22;3579;48.956;9.154;2024-03-07T10:14:38;20.90;59.80
7077;DHT22;3579;48.956;9.154;2024-03-07T10:17:05;21.00;60.10
7077;DHT22;3579;48.956;9.154;2024-03-07T10:19:32;21.00;60.20
7077;DHT22;3579;48.956;9.154;2024-03-07T10:21:59;21.00;60.40
7077;DHT22;3579;48.956;9.154;2024-03-07T10:24:28;21.10;60.30
7077;DHT22;3579;48.956;9.154;2024-03-07T10:26:54;21.10;60.40
7077;DHT22;3579;48.956;9.154;2024-03-07T10:29:24;21.10;60.20
7077;DHT22;3579;48.956;9.154;2024-03-07T10:31:50;21.30;59.90
7077;DHT22;3579;48.956;9.154;2024-03-07T10:34:17;21.30;59.90
7077;DHT22;3579;48.956;9.154;2024-03-07T10:36:43;21.40;59.80
7077;DHT22;3579;48.956;9.154;2024-03-07T10:39:10;21.50;59.90
7077;DHT22;3579;48.956;9.154;2024-03-07T10:41:47;21.40;59.90
7077;DHT22;3579;48.956;9.154;2024-03-07T10:44:33;21.50;60.40
7077;DHT22;3579;48.956;9.154;2024-03-07T10:47:08;21.50;60.40
7077;DHT22;3579;48.956;9.154;2024-03-07T10:49:41;21.60;60.60
7077;DHT22;3579;48.956;9.154;2024-03-07T10:52:33;21.60;60.40
7077;DHT22;3579;48.956;9.154;2024-03-07T10:55:10;20.70;59.50
7077;DHT22;3579;48.956;9.154;2024-03-07T10:57:52;21.70;60.00
7077;DHT22;3579;48.956;9.154;2024-03-07T11:00:26;21.80;59.90
7077;DHT22;3579;48.956;9.154;2024-03-07T11:02:56;21.80;60.00
7077;DHT22;3579;48.956;9.154;2024-03-07T11:05:25;21.80;59.90
7077;DHT22;3579;48.956;9.154;2024-03-07T11:07:52;21.90;59.70
7077;DHT22;3579;48.956;9.154;2024-03-07T11:10:20;22.00;59.80
7077;DHT22;3579;48.956;9.154;2024-03-07T11:12:47;22.10;59.80
7077;DHT22;3579;48.956;9.154;2024-03-07T11:15:18;22.10;59.90
7077;DHT22;3579;48.956;9.154;2024-03-07T11:17:47;22.20;59.80
7077;DHT22;3579;48.956;9.154;2024-03-07T11:20:22;22.20;59.70
7077;DHT22;3579;48.956;9.154;2024-03-07T11:22:50;22.20;59.90
7077;DHT22;3579;48.956;9.154;2024-03-07T11:25:20;22.20;59.90
7077;DHT22;3579;48.956;9.154;2024-03-07T11:28:05;22.30;60.00
7077;DHT22;3579;48.956;9.154;2024-03-07T11:30:31;22.30;59.80
7077;DHT22;3579;48.956;9.154;2024-03-07T11:33:02;22.40;60.20
7077;DHT22;3579;48.956;9.154;2024-03-07T11:35:33;22.30;57.90
7077;DHT22;3579;48.956;9.154;2024-03-07T11:38:02;22.10;58.10
7077;DHT22;3579;48.956;9.154;2024-03-07T11:42:58;22.30;57.90
7077;DHT22;3579;48.956;9.154;2024-03-07T11:45:26;22.40;57.90
7077;DHT22;3579;48.956;9.154;2024-03-07T11:47:59;22.40;58.00
7077;DHT22;3579;48.956;9.154;2024-03-07T11:50:27;22.50;58.20
7077;DHT22;3579;48.956;9.154;2024-03-07T11:52:54;22.50;58.20
7077;DHT22;3579;48.956;9.154;2024-03-07T11:55:21;22.60;58.20
7077;DHT22;3579;48.956;9.154;2024-03-07T11:57:51;22.70;58.40
7077;DHT22;3579;48.956;9.154;2024-03-07T12:00:18;22.60;57.30
7077;DHT22;3579;48.956;9.154;2024-03-07T12:02:45;22.60;57.20
7077;DHT22;3579;48.956;9.154;2024-03-07T12:05:11;22.60;57.20
7077;DHT22;3579;48.956;9.154;2024-03-07T12:07:41;22.60;56.90
7077;DHT22;3579;48.956;9.154;2024-03-07T12:10:09;22.60;56.80
7077;DHT22;3579;48.956;9.154;2024-03-07T12:12:36;22.60;56.90
7077;DHT22;3579;48.956;9.154;2024-03-07T12:15:08;22.60;56.30
7077;DHT22;3579;48.956;9.154;2024-03-07T12:17:46;22.60;55.90
7077;DHT22;3579;48.956;9.154;2024-03-07T12:20:16;22.60;55.90
7077;DHT22;3579;48.956;9.154;2024-03-07T12:22:58;22.70;56.00
7077;DHT22;3579;48.956;9.154;2024-03-07T12:25:27;22.60;55.50
7077;DHT22;3579;48.956;9.154;2024-03-07T12:28:21;22.70;55.50
7077;DHT22;3579;48.956;9.154;2024-03-07T12:30:54;22.70;55.20
7077;DHT22;3579;48.956;9.154;2024-03-07T12:33:21;22.70;55.30
7077;DHT22;3579;48.956;9.154;2024-03-07T12:35:52;22.70;55.10
7077;DHT22;3579;48.956;9.154;2024-03-07T12:38:20;22.60;54.30
7077;DHT22;3579;48.956;9.154;2024-03-07T12:41:03;22.70;54.70
7077;DHT22;3579;48.956;9.154;2024-03-07T12:43:34;22.70;54.50
7077;DHT22;3579;48.956;9.154;2024-03-07T12:46:01;22.70;54.80
7077;DHT22;3579;48.956;9.154;2024-03-07T12:48:27;22.70;53.70
7077;DHT22;3579;48.956;9.154;2024-03-07T12:50:53;22.70;54.10
7077;DHT22;3579;48.956;9.154;2024-03-07T12:53:20;22.80;54.70
7077;DHT22;3579;48.956;9.154;2024-03-07T12:55:48;22.90;54.60
7077;DHT22;3579;48.956;9.154;2024-03-07T12:58:14;22.90;55.00
7077;DHT22;3579;48.956;9.154;2024-03-07T13:00:41;23.00;55.20
7077;DHT22;3579;48.956;9.154;2024-03-07T13:03:09;23.00;54.90
7077;DHT22;3579;48.956;9.154;2024-03-07T13:05:37;23.00;55.10
7077;DHT22;3579;48.956;9.154;2024-03-07T13:08:07;23.10;55.30
7077;DHT22;3579;48.956;9.154;2024-03-07T13:10:42;23.10;55.10
7077;DHT22;3579;48.956;9.154;2024-03-07T13:13:09;23.20;55.20
7077;DHT22;3579;48.956;9.154;2024-03-07T13:15:38;23.20;55.30
7077;DHT22;3579;48.956;9.154;2024-03-07T13:18:05;23.30;55.30
7077;DHT22;3579;48.956;9.154;2024-03-07T13:20:32;23.30;55.30
7077;DHT22;3579;48.956;9.154;2024-03-07T13:34:28;23.40;55.30
7077;DHT22;3579;48.956;9.154;2024-03-07T13:36:54;23.40;55.50
7077;DHT22;3579;48.956;9.154;2024-03-07T13:39:24;23.40;55.20
7077;DHT22;3579;48.956;9.154;2024-03-07T13:41:50;23.40;55.30
7077;DHT22;3579;48.956;9.154;2024-03-07T13:44:17;23.40;55.10
7077;DHT22;3579;48.956;9.154;2024-03-07T13:46:45;23.40;55.40
7077;DHT22;3579;48.956;9.154;2024-03-07T13:49:11;23.40;55.00
7077;DHT22;3579;48.956;9.154;2024-03-07T13:51:46;23.30;55.30
7077;DHT22;3579;48.956;9.154;2024-03-07T13:54:29;23.40;55.10
7077;DHT22;3579;48.956;9.154;2024-03-07T13:57:35;23.20;52.00
7077;DHT22;3579;48.956;9.154;2024-03-07T14:00:27;23.10;52.40
7077;DHT22;3579;48.956;9.154;2024-03-07T14:06:04;23.00;52.50
7077;DHT22;3579;48.956;9.154;2024-03-07T14:14:25;24.70;53.90
7077;DHT22;3579;48.956;9.154;2024-03-07T14:31:39;22.90;52.30
7077;DHT22;3579;48.956;9.154;2024-03-07T14:34:20;22.90;52.00
7077;DHT22;3579;48.956;9.154;2024-03-07T14:37:21;22.90;52.20
7077;DHT22;3579;48.956;9.154;2024-03-07T14:39:51;22.90;52.80
7077;DHT22;3579;48.956;9.154;2024-03-07T14:42:19;22.90;52.50
7077;DHT22;3579;48.956;9.154;2024-03-07T14:44:46;22.90;52.30
7077;DHT22;3579;48.956;9.154;2024-03-07T14:47:18;22.90;52.40
7077;DHT22;3579;48.956;9.154;2024-03-07T14:49:45;22.80;52.20
7077;DHT22;3579;48.956;9.154;2024-03-07T14:52:12;22.80;52.30
7077;DHT22;3579;48.956;9.154;2024-03-07T14:54:40;22.80;52.30
7077;DHT22;3579;48.956;9.154;2024-03-07T14:57:10;22.80;52.40
7077;DHT22;3579;48.956;9.154;2024-03-07T14:59:37;22.80;53.10
7077;DHT22;3579;48.956;9.154;2024-03-07T15:02:03;22.90;53.20
7077;DHT22;3579;48.956;9.154;2024-03-07T15:04:34;23.00;53.00
7077;DHT22;3579;48.956;9.154;2024-03-07T15:07:01;23.10;53.20
7077;DHT22;3579;48.956;9.154;2024-03-07T15:09:28;23.10;53.60
7077;DHT22;3579;48.956;9.154;2024-03-07T15:11:56;23.20;53.70
7077;DHT22;3579;48.956;9.154;2024-03-07T15:14:23;23.30;53.60
7077;DHT22;3579;48.956;9.154;2024-03-07T15:16:49;23.30;53.80
7077;DHT22;3579;48.956;9.154;2024-03-07T15:19:15;22.90;52.20
7077;DHT22;3579;48.956;9.154;2024-03-07T15:21:41;23.20;52.00
7077;DHT22;3579;48.956;9.154;2024-03-07T15:24:07;23.00;52.00
7077;DHT22;3579;48.956;9.154;2024-03-07T15:26:34;22.90;52.10
7077;DHT22;3579;48.956;9.154;2024-03-07T15:29:01;22.90;52.20
7077;DHT22;3579;48.956;9.154;2024-03-07T15:31:27;22.90;52.60
7077;DHT22;3579;48.956;9.154;2024-03-07T15:33:53;22.80;52.40
7077;DHT22;3579;48.956;9.154;2024-03-07T15:36:20;22.80;52.40
7077;DHT22;3579;48.956;9.154;2024-03-07T15:38:51;22.80;52.70
7077;DHT22;3579;48.956;9.154;2024-03-07T15:41:17;22.80;52.60
7077;DHT22;3579;48.956;9.154;2024-03-07T15:43:43;22.80;52.80
7077;DHT22;3579;48.956;9.154;2024-03-07T15:46:11;22.80;52.80
7077;DHT22;3579;48.956;9.154;2024-03-07T15:48:40;22.80;52.80
7077;DHT22;3579;48.956;9.154;2024-03-07T15:51:06;22.80;53.10
7077;DHT22;3579;48.956;9.154;2024-03-07T15:53:33;22.80;52.90
7077;DHT22;3579;48.956;9.154;2024-03-07T15:56:00;22.80;53.10
7077;DHT22;3579;48.956;9.154;2024-03-07T15:58:33;22.80;52.90
7077;DHT22;3579;48.956;9.154;2024-03-07T16:01:09;22.70;52.70
7077;DHT22;3579;48.956;9.154;2024-03-07T16:03:35;22.90;53.10
7077;DHT22;3579;48.956;9.154;2024-03-07T16:06:02;23.00;52.60
7077;DHT22;3579;48.956;9.154;2024-03-07T16:08:31;23.10;52.80
7077;DHT22;3579;48.956;9.154;2024-03-07T16:11:22;23.20;52.60
7077;DHT22;3579;48.956;9.154;2024-03-07T16:13:50;23.20;52.50
7077;DHT22;3579;48.956;9.154;2024-03-07T16:16:16;23.20;52.80
7077;DHT22;3579;48.956;9.154;2024-03-07T16:18:43;23.30;52.70
7077;DHT22;3579;48.956;9.154;2024-03-07T16:21:09;23.30;52.70
7077;DHT22;3579;48.956;9.154;2024-03-07T16:23:36;23.30;52.70
7077;DHT22;3579;48.956;9.154;2024-03-07T16:26:05;23.40;52.70
7077;DHT22;3579;48.956;9.154;2024-03-07T16:28:32;23.40;52.80
7077;DHT22;3579;48.956;9.154;2024-03-07T16:30:58;23.40;52.80
7077;DHT22;3579;48.956;9.154;2024-03-07T16:33:27;23.40;52.80
7077;DHT22;3579;48.956;9.154;2024-03-07T16:35:53;23.50;52.90
7077;DHT22;3579;48.956;9.154;2024-03-07T16:38:19;23.50;52.80
7077;DHT22;3579;48.956;9.154;2024-03-07T16:40:48;23.50;53.00
7077;DHT22;3579;48.956;9.154;2024-03-07T16:43:15;23.50;53.10
7077;DHT22;3579;48.956;9.154;2024-03-07T16:45:41;23.50;53.00
7077;DHT22;3579;48.956;9.154;2024-03-07T16:48:08;23.50;53.00
7077;DHT22;3579;48.956;9.154;2024-03-07T16:50:37;23.50;53.10
7077;DHT22;3579;48.956;9.154;2024-03-07T16:53:06;23.50;53.10